Detall de PIREP

Printer-friendly versionPDF version

[2009/05/27 22:47:00]
Flight IATA:CT2100
Pilot Number:026
Company ICAO:CAT
Aircraft Type:DC85/A
PAX:125
Departing Airport: LEVC
Destination Airport: LEAS
Alternate Airport:LEMD
Online: VATSIM
Route:CENTA/N380F230 A33 PRADO/N0450F310 UN733 ZMR UM30
Flight Level:FL330
No Slew and time accel
No pause
Crash detect
Detect pilot in Cockpit between each 30 and 45 minutes
22:47 Zero fuel Weight: 185718 Lbs, Fuel Weight: 17001 Lbs
22:47 VATSIM:LEVC 272230Z 28004KT CAVOK 18/14 Q1024 NOSIG
22:47 VATSIM:LEAS 272130Z 11009KT 070V130 CAVOK 12/09 Q1031 NOSIG
22:47 VOICE CATALONIAN
22:53 Parking Brakes off
23:01 Take-off
23:01 Take off Weight: 201554 Lbs
23:01 Wind: 263º @ 004 Knots Heading: 294º
23:01 POS N39º 29´ 21´´ W000º 28´ 53´´
23:01 Flaps:2 at 159 Knots
23:01 Gear Up: 164 Knots
23:01 Gear Down: 167 Knots
23:02 Gear Up: 165 Knots
23:02 Flaps:1 at 154 Knots
23:04 Flaps:
0 at 226 Knots
23:16 Wind:017º@015 Knots Heading: 300º Ground Speed: 450 Knots Altitude 23343 ft
23:22 TOC
23:22 Fuel Weight: 9500 Lb
23:31 Wind:039º@030 Knots Heading: 299º Ground Speed: 494 Knots Altitude 33346 ft
23:34 TOD
23:34 Fuel Weight: 6629 Lb
23:46 Wind:054º@002 Knots Heading: 353º Ground Speed: 384 Knots Altitude 14251 ft
00:01 Wind:109º@017 Knots Heading: 311º Ground Speed: 297 Knots Altitude 4904 ft
00:02 Flaps:1 at 243 Knots
00:05 Gear Down: 205 Knots
00:05 Flaps:2 at 203 Knots
00:06 Flaps:3 at 187 Knots
00:06 Flaps:4 at 170 Knots
00:07 Flaps:5 at 156 Knots
00:07 TouchDown:Rate -842 ft/min Speed: 132 Knots
00:08 VATSIM:LEAS 272130Z 11009KT 070V130 CAVOK 12/09 Q1031 NOSIG
00:08 Land
00:08 Wind:124º@010 Knots
00:08 Heading: 110º
00:08 Flight Duration: 01:07
00:08 Landing Weight: 187977 Lbs
00:08 POS N43º 33´ 47´´ W006º 02´ 00´´
00:11 Parkin
g brakes on
00:11 Block to Block Duration: 01:18
00:11 Final Fuel: 1873 Lbls
00:11 Spent Fuel: 15127 Lbls
00:11 Flight Length: 413 NM
00:11 TOD Land Length: 188 NM

Exportar CSV

Powered by Drupal - Modified by Danger4k